sensor_id;sensor_type;location;lat;lon;timestamp;temperature;humidity
25046;DHT22;13044;49.304;12.840;2022-09-13T00:01:09;12.70;99.90
25046;DHT22;13044;49.304;12.840;2022-09-13T00:03:36;12.70;99.90
25046;DHT22;13044;49.304;12.840;2022-09-13T00:06:21;12.60;99.90
25046;DHT22;13044;49.304;12.840;2022-09-13T00:08:48;12.60;99.90
25046;DHT22;13044;49.304;12.840;2022-09-13T00:11:24;12.60;99.90
25046;DHT22;13044;49.304;12.840;2022-09-13T00:13:53;12.50;99.90
25046;DHT22;13044;49.304;12.840;2022-09-13T00:16:22;12.40;99.90
25046;DHT22;13044;49.304;12.840;2022-09-13T00:18:52;12.40;99.90
25046;DHT22;13044;49.304;12.840;2022-09-13T00:21:21;12.30;99.90
25046;DHT22;13044;49.304;12.840;2022-09-13T00:23:50;12.30;99.90
25046;DHT22;13044;49.304;12.840;2022-09-13T00:26:21;12.30;99.90
25046;DHT22;13044;49.304;12.840;2022-09-13T00:28:51;12.20;99.90
25046;DHT22;13044;49.304;12.840;2022-09-13T00:31:20;12.20;99.90
25046;DHT22;13044;49.304;12.840;2022-09-13T00:33:49;12.20;99.90
25046;DHT22;13044;49.304;12.840;2022-09-13T00:36:16;12.20;99.90
25046;DHT22;13044;49.304;12.840;2022-09-13T00:38:43;12.30;99.90
25046;DHT22;13044;49.304;12.840;2022-09-13T00:41:14;12.40;99.90
25046;DHT22;13044;49.304;12.840;2022-09-13T00:43:54;12.40;99.90
25046;DHT22;13044;49.304;12.840;2022-09-13T00:49:15;12.40;99.90
25046;DHT22;13044;49.304;12.840;2022-09-13T00:51:49;12.40;99.90
25046;DHT22;13044;49.304;12.840;2022-09-13T00:54:24;12.40;99.90
25046;DHT22;13044;49.304;12.840;2022-09-13T00:56:54;12.40;99.90
25046;DHT22;13044;49.304;12.840;2022-09-13T00:59:31;12.50;99.90
25046;DHT22;13044;49.304;12.840;2022-09-13T01:02:00;12.40;99.90
25046;DHT22;13044;49.304;12.840;2022-09-13T01:04:31;12.30;99.90
25046;DHT22;13044;49.304;12.840;2022-09-13T01:07:03;12.20;99.90
25046;DHT22;13044;49.304;12.840;2022-09-13T01:09:38;12.30;99.90
25046;DHT22;13044;49.304;12.840;2022-09-13T01:12:33;12.30;99.90
25046;DHT22;13044;49.304;12.840;2022-09-13T01:15:14;12.30;99.90
25046;DHT22;13044;49.304;12.840;2022-09-13T01:17:42;12.30;99.90
25046;DHT22;13044;49.304;12.840;2022-09-13T01:20:10;12.40;99.90
25046;DHT22;13044;49.304;12.840;2022-09-13T01:23:04;12.40;99.90
25046;DHT22;13044;49.304;12.840;2022-09-13T01:25:46;12.30;99.90
25046;DHT22;13044;49.304;12.840;2022-09-13T01:28:59;12.20;99.90
25046;DHT22;13044;49.304;12.840;2022-09-13T01:34:33;12.00;99.90
25046;DHT22;13044;49.304;12.840;2022-09-13T01:37:13;12.20;99.90
25046;DHT22;13044;49.304;12.840;2022-09-13T01:40:30;12.10;99.90
25046;DHT22;13044;49.304;12.840;2022-09-13T01:45:59;11.90;99.90
25046;DHT22;13044;49.304;12.840;2022-09-13T01:51:31;11.90;99.90
25046;DHT22;13044;49.304;12.840;2022-09-13T01:54:08;11.90;99.90
25046;DHT22;13044;49.304;12.840;2022-09-13T01:59:59;11.80;99.90
25046;DHT22;13044;49.304;12.840;2022-09-13T02:02:34;11.80;99.90
25046;DHT22;13044;49.304;12.840;2022-09-13T02:05:20;11.80;99.90
25046;DHT22;13044;49.304;12.840;2022-09-13T02:07:59;11.70;99.90
25046;DHT22;13044;49.304;12.840;2022-09-13T02:10:33;11.70;99.90
25046;DHT22;13044;49.304;12.840;2022-09-13T02:13:07;11.60;99.90
25046;DHT22;13044;49.304;12.840;2022-09-13T02:15:42;11.50;99.90
25046;DHT22;13044;49.304;12.840;2022-09-13T02:18:16;11.50;99.90
25046;DHT22;13044;49.304;12.840;2022-09-13T02:20:52;11.60;99.90
25046;DHT22;13044;49.304;12.840;2022-09-13T02:23:29;11.60;99.90
25046;DHT22;13044;49.304;12.840;2022-09-13T02:26:01;11.70;99.90
25046;DHT22;13044;49.304;12.840;2022-09-13T02:28:38;11.80;99.90
25046;DHT22;13044;49.304;12.840;2022-09-13T02:31:07;11.70;99.90
25046;DHT22;13044;49.304;12.840;2022-09-13T02:33:48;11.70;99.90
25046;DHT22;13044;49.304;12.840;2022-09-13T02:36:27;11.70;99.90
25046;DHT22;13044;49.304;12.840;2022-09-13T02:39:01;11.70;99.90
25046;DHT22;13044;49.304;12.840;2022-09-13T02:41:38;11.60;99.90
25046;DHT22;13044;49.304;12.840;2022-09-13T02:50:01;11.60;99.90
25046;DHT22;13044;49.304;12.840;2022-09-13T02:57:07;11.70;99.90
25046;DHT22;13044;49.304;12.840;2022-09-13T02:59:20;11.50;99.90
25046;DHT22;13044;49.304;12.840;2022-09-13T03:01:54;11.50;99.90
25046;DHT22;13044;49.304;12.840;2022-09-13T03:04:25;11.40;99.90
25046;DHT22;13044;49.304;12.840;2022-09-13T03:06:52;11.50;99.90
25046;DHT22;13044;49.304;12.840;2022-09-13T03:09:20;11.40;99.90
25046;DHT22;13044;49.304;12.840;2022-09-13T03:20:45;11.30;99.90
25046;DHT22;13044;49.304;12.840;2022-09-13T03:23:49;11.20;99.90
25046;DHT22;13044;49.304;12.840;2022-09-13T03:35:39;11.20;99.90
25046;DHT22;13044;49.304;12.840;2022-09-13T03:38:30;11.20;99.90
25046;DHT22;13044;49.304;12.840;2022-09-13T03:41:03;11.20;99.90
25046;DHT22;13044;49.304;12.840;2022-09-13T03:43:43;11.30;99.90
25046;DHT22;13044;49.304;12.840;2022-09-13T03:46:37;11.40;99.90
25046;DHT22;13044;49.304;12.840;2022-09-13T03:49:07;11.30;99.90
25046;DHT22;13044;49.304;12.840;2022-09-13T03:51:36;11.20;99.90
25046;DHT22;13044;49.304;12.840;2022-09-13T03:54:09;11.00;99.90
25046;DHT22;13044;49.304;12.840;2022-09-13T03:56:40;10.90;99.90
25046;DHT22;13044;49.304;12.840;2022-09-13T03:59:07;10.90;99.90
25046;DHT22;13044;49.304;12.840;2022-09-13T04:01:34;10.90;99.90
25046;DHT22;13044;49.304;12.840;2022-09-13T04:04:01;11.00;99.90
25046;DHT22;13044;49.304;12.840;2022-09-13T04:06:28;11.00;99.90
25046;DHT22;13044;49.304;12.840;2022-09-13T04:08:54;11.00;99.90
25046;DHT22;13044;49.304;12.840;2022-09-13T04:11:22;11.00;99.90
25046;DHT22;13044;49.304;12.840;2022-09-13T04:13:48;11.10;99.90
25046;DHT22;13044;49.304;12.840;2022-09-13T04:16:16;11.20;99.90
25046;DHT22;13044;49.304;12.840;2022-09-13T04:18:43;11.20;99.90
25046;DHT22;13044;49.304;12.840;2022-09-13T04:21:09;11.20;99.90
25046;DHT22;13044;49.304;12.840;2022-09-13T04:23:36;11.20;99.90
25046;DHT22;13044;49.304;12.840;2022-09-13T04:26:04;11.20;99.90
25046;DHT22;13044;49.304;12.840;2022-09-13T04:28:31;11.20;99.90
25046;DHT22;13044;49.304;12.840;2022-09-13T04:30:58;11.10;99.90
25046;DHT22;13044;49.304;12.840;2022-09-13T04:33:25;11.10;99.90
25046;DHT22;13044;49.304;12.840;2022-09-13T04:35:58;11.10;99.90
25046;DHT22;13044;49.304;12.840;2022-09-13T04:38:26;11.10;99.90
25046;DHT22;13044;49.304;12.840;2022-09-13T04:40:56;11.10;99.90
25046;DHT22;13044;49.304;12.840;2022-09-13T04:43:23;11.10;99.90
25046;DHT22;13044;49.304;12.840;2022-09-13T04:45:50;11.10;99.90
25046;DHT22;13044;49.304;12.840;2022-09-13T04:48:17;11.10;99.90
25046;DHT22;13044;49.304;12.840;2022-09-13T04:50:44;11.00;99.90
25046;DHT22;13044;49.304;12.840;2022-09-13T04:53:12;10.90;99.90
25046;DHT22;13044;49.304;12.840;2022-09-13T04:55:39;10.80;99.90
25046;DHT22;13044;49.304;12.840;2022-09-13T04:58:06;10.80;99.90
25046;DHT22;13044;49.304;12.840;2022-09-13T05:00:33;10.80;99.90
25046;DHT22;13044;49.304;12.840;2022-09-13T05:03:00;10.90;99.90
25046;DHT22;13044;49.304;12.840;2022-09-13T05:05:26;10.90;99.90
25046;DHT22;13044;49.304;12.840;2022-09-13T05:07:54;10.90;99.90
25046;DHT22;13044;49.304;12.840;2022-09-13T05:10:21;10.90;99.90
25046;DHT22;13044;49.304;12.840;2022-09-13T05:12:48;10.90;99.90
25046;DHT22;13044;49.304;12.840;2022-09-13T05:15:15;10.90;99.90
25046;DHT22;13044;49.304;12.840;2022-09-13T05:17:42;11.00;99.90
25046;DHT22;13044;49.304;12.840;2022-09-13T05:20:09;11.00;99.90
25046;DHT22;13044;49.304;12.840;2022-09-13T05:22:36;11.10;99.90
25046;DHT22;13044;49.304;12.840;2022-09-13T05:25:03;11.20;99.90
25046;DHT22;13044;49.304;12.840;2022-09-13T05:27:30;11.30;99.90
25046;DHT22;13044;49.304;12.840;2022-09-13T05:29:57;11.30;99.90
25046;DHT22;13044;49.304;12.840;2022-09-13T05:32:24;11.40;99.90
25046;DHT22;13044;49.304;12.840;2022-09-13T05:34:51;11.40;99.90
25046;DHT22;13044;49.304;12.840;2022-09-13T05:37:18;11.40;99.90
25046;DHT22;13044;49.304;12.840;2022-09-13T05:39:44;11.50;99.90
25046;DHT22;13044;49.304;12.840;2022-09-13T05:42:31;11.50;99.90
25046;DHT22;13044;49.304;12.840;2022-09-13T05:44:58;11.50;99.90
25046;DHT22;13044;49.304;12.840;2022-09-13T05:47:25;11.70;99.90
25046;DHT22;13044;49.304;12.840;2022-09-13T05:49:51;11.70;99.90
25046;DHT22;13044;49.304;12.840;2022-09-13T05:52:36;11.80;99.90
25046;DHT22;13044;49.304;12.840;2022-09-13T05:55:03;12.00;99.90
25046;DHT22;13044;49.304;12.840;2022-09-13T05:57:30;12.10;99.90
25046;DHT22;13044;49.304;12.840;2022-09-13T06:00:00;12.20;99.90
25046;DHT22;13044;49.304;12.840;2022-09-13T06:02:27;12.20;99.90
25046;DHT22;13044;49.304;12.840;2022-09-13T06:04:54;12.30;99.90
25046;DHT22;13044;49.304;12.840;2022-09-13T06:07:20;12.30;99.90
25046;DHT22;13044;49.304;12.840;2022-09-13T06:09:47;12.20;99.90
25046;DHT22;13044;49.304;12.840;2022-09-13T06:12:15;12.30;99.90
25046;DHT22;13044;49.304;12.840;2022-09-13T06:14:41;12.30;99.90
25046;DHT22;13044;49.304;12.840;2022-09-13T06:17:08;12.40;99.90
25046;DHT22;13044;49.304;12.840;2022-09-13T06:19:35;12.60;99.90
25046;DHT22;13044;49.304;12.840;2022-09-13T06:22:02;12.70;99.90
25046;DHT22;13044;49.304;12.840;2022-09-13T06:24:28;12.80;99.90
25046;DHT22;13044;49.304;12.840;2022-09-13T06:26:56;12.90;99.90
25046;DHT22;13044;49.304;12.840;2022-09-13T06:29:23;13.00;99.90
25046;DHT22;13044;49.304;12.840;2022-09-13T06:31:50;13.10;99.90
25046;DHT22;13044;49.304;12.840;2022-09-13T06:34:17;13.20;99.90
25046;DHT22;13044;49.304;12.840;2022-09-13T06:36:44;13.20;99.90
25046;DHT22;13044;49.304;12.840;2022-09-13T06:39:11;13.40;99.90
25046;DHT22;13044;49.304;12.840;2022-09-13T06:41:38;13.40;99.90
25046;DHT22;13044;49.304;12.840;2022-09-13T06:44:05;13.50;99.90
25046;DHT22;13044;49.304;12.840;2022-09-13T06:46:33;13.60;99.90
25046;DHT22;13044;49.304;12.840;2022-09-13T06:49:02;13.70;99.90
25046;DHT22;13044;49.304;12.840;2022-09-13T06:51:32;13.70;99.90
25046;DHT22;13044;49.304;12.840;2022-09-13T06:53:59;13.80;99.90
25046;DHT22;13044;49.304;12.840;2022-09-13T06:56:31;13.90;99.90
25046;DHT22;13044;49.304;12.840;2022-09-13T06:59:02;14.00;99.90
25046;DHT22;13044;49.304;12.840;2022-09-13T07:01:35;14.10;99.90
25046;DHT22;13044;49.304;12.840;2022-09-13T07:04:09;14.20;99.90
25046;DHT22;13044;49.304;12.840;2022-09-13T07:06:39;14.30;99.90
25046;DHT22;13044;49.304;12.840;2022-09-13T07:09:10;14.40;99.90
25046;DHT22;13044;49.304;12.840;2022-09-13T07:11:40;14.50;99.90
25046;DHT22;13044;49.304;12.840;2022-09-13T07:14:07;14.50;99.90
25046;DHT22;13044;49.304;12.840;2022-09-13T07:16:38;14.60;99.90
25046;DHT22;13044;49.304;12.840;2022-09-13T07:19:17;14.70;99.90
25046;DHT22;13044;49.304;12.840;2022-09-13T07:21:45;14.80;99.90
25046;DHT22;13044;49.304;12.840;2022-09-13T07:24:14;14.80;99.90
25046;DHT22;13044;49.304;12.840;2022-09-13T07:26:42;14.90;99.90
25046;DHT22;13044;49.304;12.840;2022-09-13T07:29:15;15.00;99.90
25046;DHT22;13044;49.304;12.840;2022-09-13T07:31:46;15.10;99.90
25046;DHT22;13044;49.304;12.840;2022-09-13T07:34:24;15.10;99.90
25046;DHT22;13044;49.304;12.840;2022-09-13T07:36:52;15.20;99.90
25046;DHT22;13044;49.304;12.840;2022-09-13T07:39:19;15.30;99.90
25046;DHT22;13044;49.304;12.840;2022-09-13T07:41:49;15.40;99.90
25046;DHT22;13044;49.304;12.840;2022-09-13T07:44:16;15.50;99.90
25046;DHT22;13044;49.304;12.840;2022-09-13T07:46:43;15.60;99.90
25046;DHT22;13044;49.304;12.840;2022-09-13T07:49:16;15.60;99.90
25046;DHT22;13044;49.304;12.840;2022-09-13T07:51:44;15.80;99.90
25046;DHT22;13044;49.304;12.840;2022-09-13T07:54:13;15.80;99.90
25046;DHT22;13044;49.304;12.840;2022-09-13T07:56:41;15.90;99.90
25046;DHT22;13044;49.304;12.840;2022-09-13T07:59:14;15.90;99.90
25046;DHT22;13044;49.304;12.840;2022-09-13T08:01:47;16.00;99.90
25046;DHT22;13044;49.304;12.840;2022-09-13T08:04:18;16.10;99.90
25046;DHT22;13044;49.304;12.840;2022-09-13T08:06:46;16.10;99.90
25046;DHT22;13044;49.304;12.840;2022-09-13T08:09:14;16.30;99.90
25046;DHT22;13044;49.304;12.840;2022-09-13T08:11:47;16.30;99.90
25046;DHT22;13044;49.304;12.840;2022-09-13T08:14:18;16.40;99.90
25046;DHT22;13044;49.304;12.840;2022-09-13T08:16:46;16.50;99.90
25046;DHT22;13044;49.304;12.840;2022-09-13T08:19:17;16.60;99.90
25046;DHT22;13044;49.304;12.840;2022-09-13T08:21:45;16.60;99.90
25046;DHT22;13044;49.304;12.840;2022-09-13T08:24:17;16.80;99.90
25046;DHT22;13044;49.304;12.840;2022-09-13T08:26:47;17.00;99.90
25046;DHT22;13044;49.304;12.840;2022-09-13T08:29:14;17.10;99.90
25046;DHT22;13044;49.304;12.840;2022-09-13T08:31:41;17.30;99.90
25046;DHT22;13044;49.304;12.840;2022-09-13T08:34:11;17.40;99.90
25046;DHT22;13044;49.304;12.840;2022-09-13T08:36:39;17.50;99.90
25046;DHT22;13044;49.304;12.840;2022-09-13T08:39:07;17.50;99.90
25046;DHT22;13044;49.304;12.840;2022-09-13T08:50:21;17.70;99.90
25046;DHT22;13044;49.304;12.840;2022-09-13T08:58:36;17.80;99.90
25046;DHT22;13044;49.304;12.840;2022-09-13T09:01:49;18.00;99.90
25046;DHT22;13044;49.304;12.840;2022-09-13T09:07:16;18.40;99.90
25046;DHT22;13044;49.304;12.840;2022-09-13T09:09:55;18.40;99.90
25046;DHT22;13044;49.304;12.840;2022-09-13T09:15:27;18.50;99.90
25046;DHT22;13044;49.304;12.840;2022-09-13T09:18:19;18.50;99.90
25046;DHT22;13044;49.304;12.840;2022-09-13T09:20:52;18.60;99.90
25046;DHT22;13044;49.304;12.840;2022-09-13T09:23:29;18.70;99.90
25046;DHT22;13044;49.304;12.840;2022-09-13T09:26:22;18.70;99.90
25046;DHT22;13044;49.304;12.840;2022-09-13T09:29:00;18.80;99.90
25046;DHT22;13044;49.304;12.840;2022-09-13T09:38:37;19.10;99.90
25046;DHT22;13044;49.304;12.840;2022-09-13T09:41:21;19.20;99.90
25046;DHT22;13044;49.304;12.840;2022-09-13T09:46:54;19.20;99.90
25046;DHT22;13044;49.304;12.840;2022-09-13T09:49:47;19.10;99.90
25046;DHT22;13044;49.304;12.840;2022-09-13T09:58:37;19.30;99.90
25046;DHT22;13044;49.304;12.840;2022-09-13T10:01:26;19.40;99.90
25046;DHT22;13044;49.304;12.840;2022-09-13T10:06:31;19.30;99.90
25046;DHT22;13044;49.304;12.840;2022-09-13T10:09:03;19.40;99.90
25046;DHT22;13044;49.304;12.840;2022-09-13T10:11:43;19.50;99.90
25046;DHT22;13044;49.304;12.840;2022-09-13T10:19:57;20.00;99.90
25046;DHT22;13044;49.304;12.840;2022-09-13T10:22:31;20.20;99.90
25046;DHT22;13044;49.304;12.840;2022-09-13T10:25:21;20.30;99.90
25046;DHT22;13044;49.304;12.840;2022-09-13T10:27:54;20.40;99.90
25046;DHT22;13044;49.304;12.840;2022-09-13T10:32:58;20.40;99.90
25046;DHT22;13044;49.304;12.840;2022-09-13T10:35:26;20.50;99.90
25046;DHT22;13044;49.304;12.840;2022-09-13T10:37:53;20.40;99.90
25046;DHT22;13044;49.304;12.840;2022-09-13T10:42:57;20.50;99.90
25046;DHT22;13044;49.304;12.840;2022-09-13T10:45:28;20.50;99.90
25046;DHT22;13044;49.304;12.840;2022-09-13T10:48:04;20.50;99.90
25046;DHT22;13044;49.304;12.840;2022-09-13T10:50:36;20.40;99.90
25046;DHT22;13044;49.304;12.840;2022-09-13T10:53:03;20.40;99.90
25046;DHT22;13044;49.304;12.840;2022-09-13T10:55:38;20.50;99.90
25046;DHT22;13044;49.304;12.840;2022-09-13T11:01:05;20.40;99.90
25046;DHT22;13044;49.304;12.840;2022-09-13T11:03:56;20.40;99.90
25046;DHT22;13044;49.304;12.840;2022-09-13T11:12:02;20.60;99.90
25046;DHT22;13044;49.304;12.840;2022-09-13T11:24:23;21.00;99.90
25046;DHT22;13044;49.304;12.840;2022-09-13T11:28:12;21.00;99.90
25046;DHT22;13044;49.304;12.840;2022-09-13T11:30:19;21.00;99.90
25046;DHT22;13044;49.304;12.840;2022-09-13T11:36:02;21.10;99.90
25046;DHT22;13044;49.304;12.840;2022-09-13T11:44:37;21.20;99.90
25046;DHT22;13044;49.304;12.840;2022-09-13T11:56:13;21.10;99.90
25046;DHT22;13044;49.304;12.840;2022-09-13T11:58:49;21.00;99.90
25046;DHT22;13044;49.304;12.840;2022-09-13T12:01:27;20.90;99.90
25046;DHT22;13044;49.304;12.840;2022-09-13T12:04:11;20.90;99.90
25046;DHT22;13044;49.304;12.840;2022-09-13T12:06:58;21.00;99.90
25046;DHT22;13044;49.304;12.840;2022-09-13T12:09:32;21.00;99.90
25046;DHT22;13044;49.304;12.840;2022-09-13T12:12:06;21.10;99.90
25046;DHT22;13044;49.304;12.840;2022-09-13T12:14:46;21.10;99.90
25046;DHT22;13044;49.304;12.840;2022-09-13T12:17:38;21.10;99.90
25046;DHT22;13044;49.304;12.840;2022-09-13T12:23:04;21.30;99.90
25046;DHT22;13044;49.304;12.840;2022-09-13T12:26:01;21.30;99.90
25046;DHT22;13044;49.304;12.840;2022-09-13T12:29:02;21.30;99.90
25046;DHT22;13044;49.304;12.840;2022-09-13T12:31:33;21.40;99.90
25046;DHT22;13044;49.304;12.840;2022-09-13T12:34:05;21.50;99.90
25046;DHT22;13044;49.304;12.840;2022-09-13T12:36:55;21.50;99.90
25046;DHT22;13044;49.304;12.840;2022-09-13T12:45:39;21.50;99.90
25046;DHT22;13044;49.304;12.840;2022-09-13T13:00:19;21.40;99.90
25046;DHT22;13044;49.304;12.840;2022-09-13T13:05:45;21.50;99.90
25046;DHT22;13044;49.304;12.840;2022-09-13T13:08:24;21.50;99.90
25046;DHT22;13044;49.304;12.840;2022-09-13T13:11:09;21.60;99.90
25046;DHT22;13044;49.304;12.840;2022-09-13T13:13:43;21.70;99.90
25046;DHT22;13044;49.304;12.840;2022-09-13T13:16:31;21.80;99.90
25046;DHT22;13044;49.304;12.840;2022-09-13T13:19:01;21.80;99.90
25046;DHT22;13044;49.304;12.840;2022-09-13T13:21:51;21.80;99.90
25046;DHT22;13044;49.304;12.840;2022-09-13T13:26:52;21.70;99.90
25046;DHT22;13044;49.304;12.840;2022-09-13T13:29:28;21.80;99.90
25046;DHT22;13044;49.304;12.840;2022-09-13T13:42:30;21.40;99.90
25046;DHT22;13044;49.304;12.840;2022-09-13T13:45:18;21.40;99.90
25046;DHT22;13044;49.304;12.840;2022-09-13T13:48:12;21.40;99.90
25046;DHT22;13044;49.304;12.840;2022-09-13T13:51:13;21.50;99.90
25046;DHT22;13044;49.304;12.840;2022-09-13T13:53:50;21.60;99.90
25046;DHT22;13044;49.304;12.840;2022-09-13T13:59:03;21.90;99.90
25046;DHT22;13044;49.304;12.840;2022-09-13T14:01:35;21.90;99.90
25046;DHT22;13044;49.304;12.840;2022-09-13T14:07:04;22.20;99.90
25046;DHT22;13044;49.304;12.840;2022-09-13T14:22:13;21.60;99.90
25046;DHT22;13044;49.304;12.840;2022-09-13T14:24:46;21.60;99.90
25046;DHT22;13044;49.304;12.840;2022-09-13T14:27:26;21.60;99.90
25046;DHT22;13044;49.304;12.840;2022-09-13T14:29:58;21.50;99.90
25046;DHT22;13044;49.304;12.840;2022-09-13T14:32:28;21.40;99.90
25046;DHT22;13044;49.304;12.840;2022-09-13T14:35:17;21.40;99.90
25046;DHT22;13044;49.304;12.840;2022-09-13T14:37:49;21.30;99.90
25046;DHT22;13044;49.304;12.840;2022-09-13T14:40:17;21.20;99.90
25046;DHT22;13044;49.304;12.840;2022-09-13T14:42:47;21.10;99.90
25046;DHT22;13044;49.304;12.840;2022-09-13T14:45:26;21.10;99.90
25046;DHT22;13044;49.304;12.840;2022-09-13T14:48:06;21.10;99.90
25046;DHT22;13044;49.304;12.840;2022-09-13T14:50:50;21.10;99.90
25046;DHT22;13044;49.304;12.840;2022-09-13T14:53:25;21.00;99.90
25046;DHT22;13044;49.304;12.840;2022-09-13T14:56:03;20.90;99.90
25046;DHT22;13044;49.304;12.840;2022-09-13T14:58:47;20.90;99.90
25046;DHT22;13044;49.304;12.840;2022-09-13T15:01:34;20.80;99.90
25046;DHT22;13044;49.304;12.840;2022-09-13T15:04:03;20.70;99.90
25046;DHT22;13044;49.304;12.840;2022-09-13T15:06:36;20.70;99.90
25046;DHT22;13044;49.304;12.840;2022-09-13T15:14:33;20.70;99.90
25046;DHT22;13044;49.304;12.840;2022-09-13T15:19:49;20.70;99.90
25046;DHT22;13044;49.304;12.840;2022-09-13T15:22:23;20.70;99.90
25046;DHT22;13044;49.304;12.840;2022-09-13T15:24:56;20.70;99.90
25046;DHT22;13044;49.304;12.840;2022-09-13T15:27:27;20.70;99.90
25046;DHT22;13044;49.304;12.840;2022-09-13T15:30:24;20.70;99.90
25046;DHT22;13044;49.304;12.840;2022-09-13T15:33:14;20.60;99.90
25046;DHT22;13044;49.304;12.840;2022-09-13T15:35:46;20.50;99.90
25046;DHT22;13044;49.304;12.840;2022-09-13T15:38:26;20.50;99.90
25046;DHT22;13044;49.304;12.840;2022-09-13T15:41:17;20.40;99.90
25046;DHT22;13044;49.304;12.840;2022-09-13T15:43:47;20.50;99.90
25046;DHT22;13044;49.304;12.840;2022-09-13T15:46:15;20.40;99.90
25046;DHT22;13044;49.304;12.840;2022-09-13T15:48:50;20.40;99.90
25046;DHT22;13044;49.304;12.840;2022-09-13T15:51:18;20.40;99.90
25046;DHT22;13044;49.304;12.840;2022-09-13T15:53:46;20.40;99.90
25046;DHT22;13044;49.304;12.840;2022-09-13T15:56:18;20.30;99.90
25046;DHT22;13044;49.304;12.840;2022-09-13T15:58:47;20.20;99.90
25046;DHT22;13044;49.304;12.840;2022-09-13T16:01:15;20.20;99.90
25046;DHT22;13044;49.304;12.840;2022-09-13T16:03:43;20.30;99.90
25046;DHT22;13044;49.304;12.840;2022-09-13T16:06:11;20.20;99.90
25046;DHT22;13044;49.304;12.840;2022-09-13T16:08:38;20.20;99.90
25046;DHT22;13044;49.304;12.840;2022-09-13T16:11:06;20.20;99.90
25046;DHT22;13044;49.304;12.840;2022-09-13T16:13:36;20.20;99.90
25046;DHT22;13044;49.304;12.840;2022-09-13T16:16:03;20.20;99.90
25046;DHT22;13044;49.304;12.840;2022-09-13T16:18:31;20.20;99.90
25046;DHT22;13044;49.304;12.840;2022-09-13T16:20:58;20.10;99.90
25046;DHT22;13044;49.304;12.840;2022-09-13T16:23:25;20.10;99.90
25046;DHT22;13044;49.304;12.840;2022-09-13T16:25:55;20.00;99.90
25046;DHT22;13044;49.304;12.840;2022-09-13T16:28:24;20.00;99.90
25046;DHT22;13044;49.304;12.840;2022-09-13T16:30:51;19.90;99.90
25046;DHT22;13044;49.304;12.840;2022-09-13T16:33:19;19.90;99.90
25046;DHT22;13044;49.304;12.840;2022-09-13T16:35:48;19.80;99.90
25046;DHT22;13044;49.304;12.840;2022-09-13T16:38:17;19.80;99.90
25046;DHT22;13044;49.304;12.840;2022-09-13T16:40:44;19.70;99.90
25046;DHT22;13044;49.304;12.840;2022-09-13T16:43:12;19.70;99.90
25046;DHT22;13044;49.304;12.840;2022-09-13T16:45:39;19.70;99.90
25046;DHT22;13044;49.304;12.840;2022-09-13T16:48:07;19.60;99.90
25046;DHT22;13044;49.304;12.840;2022-09-13T16:50:37;19.50;99.90
25046;DHT22;13044;49.304;12.840;2022-09-13T16:53:05;19.40;99.90
25046;DHT22;13044;49.304;12.840;2022-09-13T16:55:32;19.40;99.90
25046;DHT22;13044;49.304;12.840;2022-09-13T16:57:58;19.30;99.90
25046;DHT22;13044;49.304;12.840;2022-09-13T17:00:25;19.30;99.90
25046;DHT22;13044;49.304;12.840;2022-09-13T17:02:54;19.20;99.90
25046;DHT22;13044;49.304;12.840;2022-09-13T17:05:22;19.10;99.90
25046;DHT22;13044;49.304;12.840;2022-09-13T17:07:50;19.10;99.90
25046;DHT22;13044;49.304;12.840;2022-09-13T17:10:18;19.00;99.90
25046;DHT22;13044;49.304;12.840;2022-09-13T17:12:46;19.00;99.90
25046;DHT22;13044;49.304;12.840;2022-09-13T17:15:13;19.00;99.90
25046;DHT22;13044;49.304;12.840;2022-09-13T17:17:40;18.90;99.90
25046;DHT22;13044;49.304;12.840;2022-09-13T17:20:09;18.90;99.90
25046;DHT22;13044;49.304;12.840;2022-09-13T17:22:38;18.90;99.90
25046;DHT22;13044;49.304;12.840;2022-09-13T17:25:05;18.80;99.90
25046;DHT22;13044;49.304;12.840;2022-09-13T17:27:33;18.80;99.90
25046;DHT22;13044;49.304;12.840;2022-09-13T17:30:01;18.70;99.90
25046;DHT22;13044;49.304;12.840;2022-09-13T17:32:30;18.70;99.90
25046;DHT22;13044;49.304;12.840;2022-09-13T17:34:57;18.60;99.90
25046;DHT22;13044;49.304;12.840;2022-09-13T17:37:24;18.60;99.90
25046;DHT22;13044;49.304;12.840;2022-09-13T17:39:51;18.60;99.90
25046;DHT22;13044;49.304;12.840;2022-09-13T17:42:18;18.50;99.90
25046;DHT22;13044;49.304;12.840;2022-09-13T17:44:49;18.40;99.90
25046;DHT22;13044;49.304;12.840;2022-09-13T17:47:16;18.40;99.90
25046;DHT22;13044;49.304;12.840;2022-09-13T17:49:43;18.40;99.90
25046;DHT22;13044;49.304;12.840;2022-09-13T17:52:10;18.30;99.90
25046;DHT22;13044;49.304;12.840;2022-09-13T17:54:37;18.30;99.90
25046;DHT22;13044;49.304;12.840;2022-09-13T17:57:04;18.30;99.90
25046;DHT22;13044;49.304;12.840;2022-09-13T17:59:31;18.20;99.90
25046;DHT22;13044;49.304;12.840;2022-09-13T18:01:59;18.20;99.90
25046;DHT22;13044;49.304;12.840;2022-09-13T18:04:26;18.20;99.90
25046;DHT22;13044;49.304;12.840;2022-09-13T18:06:53;18.10;99.90
25046;DHT22;13044;49.304;12.840;2022-09-13T18:09:21;18.20;99.90
25046;DHT22;13044;49.304;12.840;2022-09-13T18:11:49;18.10;99.90
25046;DHT22;13044;49.304;12.840;2022-09-13T18:14:17;18.10;99.90
25046;DHT22;13044;49.304;12.840;2022-09-13T18:16:45;18.10;99.90
25046;DHT22;13044;49.304;12.840;2022-09-13T18:19:12;18.00;99.90
25046;DHT22;13044;49.304;12.840;2022-09-13T18:21:40;18.00;99.90
25046;DHT22;13044;49.304;12.840;2022-09-13T18:24:07;18.00;99.90
25046;DHT22;13044;49.304;12.840;2022-09-13T18:26:34;17.90;99.90
25046;DHT22;13044;49.304;12.840;2022-09-13T18:29:09;17.90;99.90
25046;DHT22;13044;49.304;12.840;2022-09-13T18:31:38;17.80;99.90
25046;DHT22;13044;49.304;12.840;2022-09-13T18:34:10;17.80;99.90
25046;DHT22;13044;49.304;12.840;2022-09-13T18:36:38;17.80;99.90
25046;DHT22;13044;49.304;12.840;2022-09-13T18:39:08;17.80;99.90
25046;DHT22;13044;49.304;12.840;2022-09-13T18:41:40;17.80;99.90
25046;DHT22;13044;49.304;12.840;2022-09-13T18:44:11;17.80;99.90
25046;DHT22;13044;49.304;12.840;2022-09-13T18:46:39;17.80;99.90
25046;DHT22;13044;49.304;12.840;2022-09-13T18:49:06;17.80;99.90
25046;DHT22;13044;49.304;12.840;2022-09-13T18:51:36;17.70;99.90
25046;DHT22;13044;49.304;12.840;2022-09-13T18:54:05;17.70;99.90
25046;DHT22;13044;49.304;12.840;2022-09-13T18:56:35;17.70;99.90
25046;DHT22;13044;49.304;12.840;2022-09-13T18:59:04;17.70;99.90
25046;DHT22;13044;49.304;12.840;2022-09-13T19:01:34;17.60;99.90